createdAt,value
2019-03-13T00:00:53.757Z,44.50
2019-03-13T00:02:03.589Z,44.62
2019-03-13T00:03:12.367Z,44.51
2019-03-13T00:04:20.655Z,44.48
2019-03-13T00:05:29.032Z,44.32
2019-03-13T00:06:37.224Z,44.38
2019-03-13T00:07:45.286Z,44.28
2019-03-13T00:08:53.344Z,44.34
2019-03-13T00:10:01.664Z,44.36
2019-03-13T00:11:10.063Z,44.35
2019-03-13T00:12:18.115Z,44.23
2019-03-13T00:13:26.497Z,44.25
2019-03-13T00:14:34.869Z,44.24
2019-03-13T00:15:43.069Z,44.12
2019-03-13T00:16:51.363Z,44.07
2019-03-13T00:17:59.667Z,44.17
2019-03-13T00:19:08.183Z,44.29
2019-03-13T00:20:16.582Z,44.35
2019-03-13T00:21:24.528Z,44.12
2019-03-13T00:22:32.978Z,44.11
2019-03-13T00:23:41.179Z,44.04
2019-03-13T00:24:49.438Z,44.19
2019-03-13T00:25:57.676Z,43.95
2019-03-13T00:27:05.954Z,43.96
2019-03-13T00:28:14.485Z,44.04
2019-03-13T00:29:22.579Z,43.85
2019-03-13T00:30:31.195Z,43.80
2019-03-13T00:31:39.219Z,43.53
2019-03-13T00:32:47.497Z,43.68
2019-03-13T00:33:55.888Z,43.64
2019-03-13T00:35:04.706Z,43.76
2019-03-13T00:36:13.419Z,43.66
2019-03-13T00:37:21.611Z,43.63
2019-03-13T00:38:29.809Z,43.67
2019-03-13T00:39:38.014Z,43.50
2019-03-13T00:40:46.021Z,43.42
2019-03-13T00:41:54.198Z,43.54
2019-03-13T00:43:02.573Z,43.49
2019-03-13T00:44:10.806Z,43.64
2019-03-13T00:45:18.989Z,43.61
2019-03-13T00:46:28.025Z,43.64
2019-03-13T00:47:36.218Z,43.73
2019-03-13T00:48:44.275Z,43.74
2019-03-13T00:49:52.622Z,43.78
2019-03-13T00:51:00.827Z,43.67
2019-03-13T00:52:08.915Z,43.68
2019-03-13T00:53:17.217Z,43.79
2019-03-13T00:54:25.338Z,43.68
2019-03-13T00:55:33.827Z,43.76
2019-03-13T00:56:41.818Z,43.81
2019-03-13T00:57:49.830Z,43.85
2019-03-13T00:58:58.002Z,43.81
2019-03-13T01:00:11.173Z,43.72
2019-03-13T01:01:26.902Z,43.79
2019-03-13T01:02:36.541Z,43.87
2019-03-13T01:03:46.482Z,43.78
2019-03-13T01:04:56.113Z,43.76
2019-03-13T01:06:11.791Z,43.66
2019-03-13T01:07:19.889Z,43.79
2019-03-13T01:08:27.988Z,43.77
2019-03-13T01:09:36.180Z,43.75
2019-03-13T01:10:44.179Z,43.70
2019-03-13T01:11:52.688Z,43.74
2019-03-13T01:13:01.479Z,43.57
2019-03-13T01:14:09.786Z,43.58
2019-03-13T01:15:17.992Z,43.48
2019-03-13T01:16:26.095Z,43.45
2019-03-13T01:17:34.491Z,43.32
2019-03-13T01:18:42.688Z,43.25
2019-03-13T01:19:51.098Z,43.22
2019-03-13T01:20:59.044Z,43.20
2019-03-13T01:22:07.494Z,43.28
2019-03-13T01:23:15.853Z,43.18
2019-03-13T01:24:23.808Z,43.09
2019-03-13T01:25:31.985Z,43.21
2019-03-13T01:26:40.180Z,43.00
2019-03-13T01:27:48.388Z,42.94
2019-03-13T01:28:56.481Z,43.07
2019-03-13T01:30:06.527Z,42.91
2019-03-13T01:31:20.106Z,42.95
2019-03-13T01:32:35.942Z,42.83
2019-03-13T01:33:44.048Z,42.71
2019-03-13T01:34:53.762Z,42.70
2019-03-13T01:36:05.717Z,42.77
2019-03-13T01:37:13.951Z,42.78
2019-03-13T01:38:21.962Z,42.72
2019-03-13T01:39:30.574Z,42.72
2019-03-13T01:40:38.798Z,42.66
2019-03-13T01:41:46.845Z,42.65
2019-03-13T01:42:54.941Z,42.66
2019-03-13T01:44:03.143Z,42.61
2019-03-13T01:45:12.461Z,42.42
2019-03-13T01:46:20.771Z,42.53
2019-03-13T01:47:29.174Z,42.52
2019-03-13T01:48:37.398Z,42.46
2019-03-13T01:49:45.402Z,42.38
2019-03-13T01:50:53.694Z,42.62
2019-03-13T01:52:01.860Z,42.46
2019-03-13T01:53:09.874Z,42.27
2019-03-13T01:54:17.691Z,42.10
2019-03-13T01:55:25.875Z,42.25
2019-03-13T01:56:34.055Z,42.26
2019-03-13T01:57:41.963Z,42.31
2019-03-13T01:58:49.964Z,42.27
2019-03-13T01:59:58.247Z,42.33
2019-03-13T02:01:06.815Z,42.30
2019-03-13T02:02:14.853Z,42.24
2019-03-13T02:03:23.267Z,42.27
2019-03-13T02:04:31.524Z,42.21
2019-03-13T02:05:39.692Z,42.32
2019-03-13T02:06:47.848Z,42.27
2019-03-13T02:07:55.980Z,42.14
2019-03-13T02:09:05.134Z,42.02
2019-03-13T02:10:14.506Z,42.16
2019-03-13T02:11:22.702Z,42.09
2019-03-13T02:12:30.898Z,42.06
2019-03-13T02:13:39.216Z,42.03
2019-03-13T02:14:47.351Z,42.07
2019-03-13T02:15:55.387Z,41.91
2019-03-13T02:17:03.705Z,42.04
2019-03-13T02:18:11.798Z,41.86
2019-03-13T02:19:19.884Z,41.78
2019-03-13T02:20:29.383Z,41.86
2019-03-13T02:21:37.529Z,41.99
2019-03-13T02:22:45.744Z,42.01
2019-03-13T02:23:54.016Z,41.86
2019-03-13T02:25:02.008Z,41.94
2019-03-13T02:26:10.194Z,41.94
2019-03-13T02:27:18.415Z,41.78
2019-03-13T02:28:26.489Z,41.76
2019-03-13T02:29:34.703Z,41.66
2019-03-13T02:30:43.015Z,41.67
2019-03-13T02:31:51.376Z,41.75
2019-03-13T02:32:59.529Z,41.69
2019-03-13T02:34:08.119Z,41.79
2019-03-13T02:35:16.131Z,41.51
2019-03-13T02:36:24.307Z,41.51
2019-03-13T02:37:32.785Z,41.64
2019-03-13T02:38:41.349Z,41.63
2019-03-13T02:39:49.399Z,41.55
2019-03-13T02:40:57.698Z,41.59
2019-03-13T02:42:05.743Z,41.28
2019-03-13T02:43:14.124Z,41.53
2019-03-13T02:44:22.449Z,41.75
2019-03-13T02:45:30.592Z,41.56
2019-03-13T02:46:38.621Z,41.60
2019-03-13T02:47:46.720Z,41.52
2019-03-13T02:48:54.815Z,41.44
2019-03-13T02:50:02.915Z,41.59
2019-03-13T02:51:10.899Z,41.57
2019-03-13T02:52:19.318Z,41.62
2019-03-13T02:53:27.833Z,41.37
2019-03-13T02:54:36.015Z,41.32
2019-03-13T02:55:44.116Z,41.35
2019-03-13T02:56:52.414Z,41.26
2019-03-13T02:58:00.613Z,41.32
2019-03-13T02:59:08.660Z,41.24
2019-03-13T03:00:28.198Z,41.20
2019-03-13T03:01:57.819Z,41.17
2019-03-13T03:03:07.720Z,41.41
2019-03-13T03:04:15.585Z,41.30
2019-03-13T03:05:23.661Z,41.29
2019-03-13T03:06:31.766Z,41.28
2019-03-13T03:07:39.911Z,41.15
2019-03-13T03:08:48.007Z,41.15
2019-03-13T03:09:56.103Z,41.30
2019-03-13T03:11:04.354Z,41.17
2019-03-13T03:12:12.197Z,41.01
2019-03-13T03:13:20.289Z,41.14
2019-03-13T03:14:28.344Z,41.14
2019-03-13T03:15:37.707Z,41.10
2019-03-13T03:16:45.901Z,41.13
2019-03-13T03:17:54.122Z,41.12
2019-03-13T03:19:02.322Z,41.17
2019-03-13T03:20:14.810Z,41.13
2019-03-13T03:21:22.833Z,41.13
2019-03-13T03:22:31.165Z,41.08
2019-03-13T03:23:39.356Z,41.03
2019-03-13T03:24:47.306Z,41.04
2019-03-13T03:25:55.425Z,41.06
2019-03-13T03:27:03.634Z,41.04
2019-03-13T03:28:11.816Z,40.90
2019-03-13T03:29:19.710Z,40.73
2019-03-13T03:30:27.972Z,40.66
2019-03-13T03:31:36.176Z,40.75
2019-03-13T03:32:44.320Z,40.89
2019-03-13T03:34:02.675Z,40.72
2019-03-13T03:35:10.987Z,40.54
2019-03-13T03:36:18.845Z,40.60
2019-03-13T03:37:27.002Z,40.66
2019-03-13T03:38:35.116Z,40.66
2019-03-13T03:39:43.483Z,40.65
2019-03-13T03:40:51.526Z,40.59
2019-03-13T03:41:59.674Z,40.58
2019-03-13T03:43:07.795Z,40.45
2019-03-13T03:44:15.864Z,40.49
2019-03-13T03:45:23.738Z,40.48
2019-03-13T03:46:32.202Z,40.42
2019-03-13T03:47:40.596Z,40.33
2019-03-13T03:48:48.560Z,40.21
2019-03-13T03:49:56.811Z,40.33
2019-03-13T03:51:04.911Z,40.40
2019-03-13T03:52:16.201Z,40.32
2019-03-13T03:53:24.246Z,40.36
2019-03-13T03:54:32.355Z,40.43
2019-03-13T03:55:40.345Z,40.49
2019-03-13T03:56:48.407Z,40.37
2019-03-13T03:57:56.589Z,40.42
2019-03-13T03:59:05.088Z,40.42
2019-03-13T04:00:18.514Z,40.47
2019-03-13T04:01:26.541Z,40.46
2019-03-13T04:02:34.668Z,40.33
2019-03-13T04:03:42.660Z,40.33
2019-03-13T04:04:50.628Z,40.29
2019-03-13T04:05:59.801Z,40.40
2019-03-13T04:07:08.191Z,40.49
2019-03-13T04:08:16.266Z,40.53
2019-03-13T04:09:24.108Z,40.59
2019-03-13T04:10:32.706Z,40.48
2019-03-13T04:11:40.761Z,40.65
2019-03-13T04:12:48.846Z,40.65
2019-03-13T04:13:56.852Z,40.66
2019-03-13T04:15:07.091Z,40.60
2019-03-13T04:16:15.179Z,40.50
2019-03-13T04:17:22.811Z,40.56
2019-03-13T04:18:30.999Z,40.62
2019-03-13T04:19:39.066Z,40.53
2019-03-13T04:20:47.056Z,40.51
2019-03-13T04:21:54.900Z,40.49
2019-03-13T04:23:03.146Z,40.30
2019-03-13T04:24:11.297Z,40.55
2019-03-13T04:25:31.386Z,40.62
2019-03-13T04:26:39.334Z,40.60
2019-03-13T04:27:47.415Z,40.49
2019-03-13T04:28:55.403Z,40.47
2019-03-13T04:30:03.301Z,40.56
2019-03-13T04:31:11.300Z,40.36
2019-03-13T04:32:19.290Z,40.38
2019-03-13T04:33:28.373Z,40.31
2019-03-13T04:34:36.848Z,40.29
2019-03-13T04:35:44.943Z,40.41
2019-03-13T04:36:52.788Z,40.45
2019-03-13T04:38:00.915Z,40.51
2019-03-13T04:39:09.111Z,40.42
2019-03-13T04:40:17.289Z,40.57
2019-03-13T04:41:25.423Z,40.59
2019-03-13T04:42:33.633Z,40.56
2019-03-13T04:43:41.689Z,40.26
2019-03-13T04:44:49.721Z,40.39
2019-03-13T04:45:57.918Z,40.36
2019-03-13T04:47:06.495Z,40.33
2019-03-13T04:48:14.320Z,40.36
2019-03-13T04:49:22.598Z,40.37
2019-03-13T04:50:30.620Z,40.38
2019-03-13T04:51:38.728Z,40.21
2019-03-13T04:52:46.773Z,40.37
2019-03-13T04:53:54.708Z,40.47
2019-03-13T04:55:02.565Z,40.34
2019-03-13T04:56:10.604Z,40.50
2019-03-13T04:57:18.448Z,40.49
2019-03-13T04:58:26.567Z,40.50
2019-03-13T04:59:36.079Z,40.42
2019-03-13T05:00:43.887Z,40.29
2019-03-13T05:01:52.395Z,40.39
2019-03-13T05:03:00.393Z,40.41
2019-03-13T05:04:08.357Z,40.22
2019-03-13T05:05:40.370Z,40.28
2019-03-13T05:06:48.409Z,40.32
2019-03-13T05:07:56.458Z,40.18
2019-03-13T05:09:06.388Z,40.32
2019-03-13T05:10:14.496Z,40.35
2019-03-13T05:11:22.350Z,40.31
2019-03-13T05:12:30.456Z,40.13
2019-03-13T05:13:38.570Z,40.25
2019-03-13T05:14:47.757Z,40.07
2019-03-13T05:15:55.781Z,40.09
2019-03-13T05:17:03.686Z,40.11
2019-03-13T05:18:11.965Z,40.07
2019-03-13T05:19:19.903Z,40.06
2019-03-13T05:20:28.174Z,39.98
2019-03-13T05:21:36.470Z,40.05
2019-03-13T05:22:44.400Z,39.99
2019-03-13T05:23:52.477Z,40.02
2019-03-13T05:25:00.548Z,40.05
2019-03-13T05:26:08.762Z,40.23
2019-03-13T05:27:16.738Z,40.23
2019-03-13T05:28:24.834Z,40.13
2019-03-13T05:29:32.927Z,40.10
2019-03-13T05:30:41.042Z,39.98
2019-03-13T05:31:49.145Z,39.88
2019-03-13T05:32:57.647Z,39.94
2019-03-13T05:34:05.623Z,39.98
2019-03-13T05:35:13.625Z,40.02
2019-03-13T05:36:21.928Z,40.15
2019-03-13T05:37:29.917Z,40.01
2019-03-13T05:38:37.941Z,40.07
2019-03-13T05:39:46.114Z,39.94
2019-03-13T05:40:55.926Z,39.76
2019-03-13T05:42:07.218Z,39.80
2019-03-13T05:43:15.353Z,39.81
2019-03-13T05:44:23.825Z,39.92
2019-03-13T05:45:31.826Z,39.81
2019-03-13T05:46:39.930Z,39.73
2019-03-13T05:47:48.120Z,39.84
2019-03-13T05:48:55.982Z,39.65
2019-03-13T05:50:05.085Z,39.73
2019-03-13T05:51:12.937Z,39.78
2019-03-13T05:52:21.197Z,39.50
2019-03-13T05:53:29.685Z,39.82
2019-03-13T05:54:38.008Z,39.66
2019-03-13T05:55:46.321Z,39.67
2019-03-13T05:56:54.288Z,39.46
2019-03-13T05:58:02.212Z,39.62
2019-03-13T05:59:10.218Z,39.65
2019-03-13T06:00:20.154Z,39.34
2019-03-13T06:01:28.118Z,39.54
2019-03-13T06:02:36.338Z,39.11
2019-03-13T06:03:44.562Z,39.33
2019-03-13T06:04:52.498Z,39.34
2019-03-13T06:06:00.439Z,39.41
2019-03-13T06:07:08.385Z,39.56
2019-03-13T06:08:18.483Z,39.51
2019-03-13T06:09:26.559Z,39.40
2019-03-13T06:10:34.765Z,39.46
2019-03-13T06:11:43.139Z,39.37
2019-03-13T06:12:51.189Z,39.27
2019-03-13T06:13:59.546Z,39.28
2019-03-13T06:15:14.119Z,39.42
2019-03-13T06:16:22.290Z,39.37
2019-03-13T06:17:30.390Z,39.37
2019-03-13T06:18:38.608Z,39.24
2019-03-13T06:19:46.621Z,39.29
2019-03-13T06:20:54.953Z,39.24
2019-03-13T06:22:02.732Z,39.09
2019-03-13T06:23:11.017Z,39.51
2019-03-13T06:24:19.127Z,39.24
2019-03-13T06:25:27.364Z,39.12
2019-03-13T06:26:35.509Z,39.18
2019-03-13T06:27:46.390Z,39.43
2019-03-13T06:28:53.748Z,39.26
2019-03-13T06:30:02.049Z,39.31
2019-03-13T06:31:10.416Z,39.22
2019-03-13T06:32:18.615Z,39.20
2019-03-13T06:33:26.553Z,39.16
2019-03-13T06:34:34.752Z,39.35
2019-03-13T06:35:42.810Z,39.57
2019-03-13T06:36:50.736Z,39.61
2019-03-13T06:37:59.032Z,39.70
2019-03-13T06:39:08.376Z,39.76
2019-03-13T06:40:23.121Z,39.89
2019-03-13T06:41:31.213Z,39.77
2019-03-13T06:42:40.098Z,40.21
2019-03-13T06:43:48.740Z,40.33
2019-03-13T06:44:57.137Z,40.39
2019-03-13T06:46:05.537Z,40.42
2019-03-13T06:47:13.934Z,40.36
2019-03-13T06:48:22.424Z,40.46
2019-03-13T06:49:30.788Z,40.57
2019-03-13T06:50:38.760Z,40.37
2019-03-13T06:51:46.902Z,40.30
2019-03-13T06:52:54.994Z,40.41
2019-03-13T06:54:03.295Z,40.25
2019-03-13T06:55:11.474Z,40.20
2019-03-13T06:56:19.639Z,40.42
2019-03-13T06:57:27.799Z,40.22
2019-03-13T06:58:37.573Z,40.17
2019-03-13T06:59:59.711Z,40.31
2019-03-13T07:01:18.006Z,40.11
2019-03-13T07:02:27.874Z,39.96
2019-03-13T07:03:41.703Z,39.64
2019-03-13T07:05:00.393Z,39.70
2019-03-13T07:06:10.389Z,39.68
2019-03-13T07:07:20.231Z,39.52
2019-03-13T07:08:30.496Z,39.38
2019-03-13T07:09:49.224Z,39.26
2019-03-13T07:11:01.857Z,39.26
2019-03-13T07:12:17.500Z,39.41
2019-03-13T07:13:43.622Z,39.27
2019-03-13T07:14:53.463Z,39.15
2019-03-13T07:16:19.683Z,39.01
2019-03-13T07:17:35.559Z,39.04
2019-03-13T07:18:48.278Z,39.18
2019-03-13T07:20:06.824Z,39.05
2019-03-13T07:21:25.482Z,39.38
2019-03-13T07:22:50.444Z,39.57
2019-03-13T07:23:59.978Z,39.02
2019-03-13T07:25:14.218Z,39.09
2019-03-13T07:26:27.154Z,39.05
2019-03-13T07:27:40.035Z,39.35
2019-03-13T07:29:11.672Z,39.27
2019-03-13T07:30:17.227Z,39.20
2019-03-13T07:31:31.090Z,39.23
2019-03-13T07:32:40.929Z,39.39
2019-03-13T07:34:07.263Z,39.22
2019-03-13T07:35:16.945Z,39.16
2019-03-13T07:36:38.691Z,39.26
2019-03-13T07:37:57.422Z,39.32
2019-03-13T07:39:09.109Z,39.35
2019-03-13T07:40:18.742Z,39.56
2019-03-13T07:41:31.569Z,39.64
2019-03-13T07:42:57.457Z,39.48
2019-03-13T07:44:19.349Z,39.43
2019-03-13T07:45:31.872Z,39.60
2019-03-13T07:46:44.319Z,39.27
2019-03-13T07:47:57.493Z,39.33
2019-03-13T07:49:14.363Z,39.47
2019-03-13T07:50:24.031Z,39.45
2019-03-13T07:51:36.523Z,39.42
2019-03-13T07:52:46.367Z,39.44
2019-03-13T07:54:02.342Z,39.40
2019-03-13T07:55:21.457Z,39.24
2019-03-13T07:56:40.096Z,39.35
2019-03-13T07:58:07.898Z,39.47
2019-03-13T07:59:24.835Z,39.25
2019-03-13T08:00:37.647Z,39.52
2019-03-13T08:01:47.787Z,39.58
2019-03-13T08:02:57.520Z,39.21
2019-03-13T08:04:10.510Z,39.18
2019-03-13T08:05:20.237Z,39.26
2019-03-13T08:06:32.797Z,39.33
2019-03-13T08:07:54.785Z,39.41
2019-03-13T08:09:16.687Z,39.35
2019-03-13T08:10:24.387Z,39.37
2019-03-13T08:11:36.971Z,39.40
2019-03-13T08:12:54.140Z,39.52
2019-03-13T08:14:18.846Z,39.50
2019-03-13T08:15:28.418Z,39.63
2019-03-13T08:16:56.682Z,39.78
2019-03-13T08:18:12.548Z,39.67
2019-03-13T08:19:38.447Z,39.91
2019-03-13T08:20:46.176Z,40.00
2019-03-13T08:21:54.022Z,39.67
2019-03-13T08:23:09.941Z,39.66
2019-03-13T08:24:23.850Z,39.59
2019-03-13T08:25:42.526Z,39.78
2019-03-13T08:26:55.425Z,39.75
2019-03-13T08:28:08.700Z,39.86
2019-03-13T08:29:18.594Z,39.77
2019-03-13T08:30:43.683Z,39.81
2019-03-13T08:32:02.542Z,40.03
2019-03-13T08:33:15.647Z,39.79
2019-03-13T08:34:34.489Z,39.80
2019-03-13T08:35:59.665Z,39.71
2019-03-13T08:37:24.478Z,39.62
2019-03-13T08:38:40.660Z,39.71
2019-03-13T08:39:56.870Z,39.75
2019-03-13T08:41:25.629Z,39.42
2019-03-13T08:42:41.580Z,39.29
2019-03-13T08:44:09.694Z,39.11
2019-03-13T08:45:29.290Z,38.97
2019-03-13T08:46:46.171Z,39.05
2019-03-13T08:48:02.576Z,38.64
2019-03-13T08:49:10.732Z,38.61
2019-03-13T08:50:23.133Z,38.60
2019-03-13T08:51:48.330Z,38.49
2019-03-13T08:53:09.940Z,38.71
2019-03-13T08:54:20.809Z,38.17
2019-03-13T08:55:30.453Z,38.38
2019-03-13T08:56:50.639Z,37.98
2019-03-13T08:58:16.477Z,38.20
2019-03-13T08:59:42.067Z,37.65
2019-03-13T09:00:51.822Z,37.21
2019-03-13T09:02:04.405Z,36.17
2019-03-13T09:03:30.392Z,36.03
2019-03-13T09:04:56.508Z,35.88
2019-03-13T09:06:24.934Z,35.94
2019-03-13T09:07:43.472Z,35.90
2019-03-13T09:08:56.842Z,35.90
2019-03-13T09:10:10.470Z,35.95
2019-03-13T09:11:24.147Z,36.07
2019-03-13T09:12:36.645Z,36.20
2019-03-13T09:14:01.692Z,35.99
2019-03-13T09:15:12.987Z,36.19
2019-03-13T09:16:25.427Z,36.14
2019-03-13T09:17:51.798Z,36.16
2019-03-13T09:19:01.473Z,36.17
2019-03-13T09:20:18.326Z,36.01
2019-03-13T09:21:37.078Z,35.89
2019-03-13T09:23:00.020Z,35.66
2019-03-13T09:24:15.841Z,35.87
2019-03-13T09:25:26.256Z,36.16
2019-03-13T09:26:48.062Z,36.42
2019-03-13T09:28:00.727Z,36.57
2019-03-13T09:29:21.705Z,36.34
2019-03-13T09:30:40.156Z,36.20
2019-03-13T09:31:53.645Z,36.06
2019-03-13T09:33:09.619Z,36.20
2019-03-13T09:34:19.386Z,36.21
2019-03-13T09:35:29.390Z,36.21
2019-03-13T09:36:50.544Z,36.28
2019-03-13T09:38:13.145Z,35.97
2019-03-13T09:39:22.781Z,36.04
2019-03-13T09:40:33.350Z,35.79
2019-03-13T09:41:43.193Z,35.80
2019-03-13T09:43:02.531Z,35.51
2019-03-13T09:44:15.018Z,35.59
2019-03-13T09:45:24.862Z,35.48
2019-03-13T09:46:32.967Z,35.39
2019-03-13T09:47:45.155Z,35.54
2019-03-13T09:49:10.181Z,35.65
2019-03-13T09:50:18.188Z,35.78
2019-03-13T09:51:44.099Z,35.81
2019-03-13T09:53:03.771Z,35.92
2019-03-13T09:54:28.678Z,36.06
2019-03-13T09:55:38.331Z,36.12
2019-03-13T09:57:03.719Z,36.02
2019-03-13T09:58:11.615Z,36.15
2019-03-13T09:59:21.376Z,36.00
2019-03-13T10:00:36.996Z,35.92
2019-03-13T10:01:53.734Z,35.83
2019-03-13T10:03:03.598Z,35.89
2019-03-13T10:04:29.383Z,35.93
2019-03-13T10:05:47.923Z,36.04
2019-03-13T10:07:09.936Z,36.17
2019-03-13T10:08:28.499Z,36.24
2019-03-13T10:09:38.109Z,36.50
2019-03-13T10:10:56.350Z,36.54
2019-03-13T10:12:06.595Z,36.72
2019-03-13T10:13:14.385Z,36.70
2019-03-13T10:14:22.377Z,36.86
2019-03-13T10:15:37.928Z,36.92
2019-03-13T10:17:09.848Z,36.92
2019-03-13T10:18:30.640Z,37.09
2019-03-13T10:19:56.657Z,37.03
2019-03-13T10:21:09.339Z,36.86
2019-03-13T10:22:17.340Z,37.16
2019-03-13T10:23:30.123Z,37.17
2019-03-13T10:24:38.122Z,37.27
2019-03-13T10:25:49.237Z,37.34
2019-03-13T10:27:04.895Z,37.32
2019-03-13T10:28:14.730Z,37.20
2019-03-13T10:29:24.353Z,37.44
2019-03-13T10:30:44.600Z,37.45
2019-03-13T10:32:06.436Z,37.59
2019-03-13T10:33:16.202Z,37.60
2019-03-13T10:34:41.872Z,37.69
2019-03-13T10:35:57.489Z,37.69
2019-03-13T10:37:10.246Z,37.78
2019-03-13T10:38:35.663Z,37.76
2019-03-13T10:39:54.198Z,37.92
2019-03-13T10:41:04.128Z,37.97
2019-03-13T10:42:29.063Z,37.99
2019-03-13T10:43:55.179Z,38.03
2019-03-13T10:45:16.800Z,38.22
2019-03-13T10:46:27.452Z,38.33
2019-03-13T10:47:46.354Z,38.51
2019-03-13T10:49:08.330Z,38.57
2019-03-13T10:50:34.726Z,38.74
2019-03-13T10:52:00.593Z,38.93
2019-03-13T10:53:11.517Z,39.01
2019-03-13T10:54:28.751Z,39.13
2019-03-13T10:55:57.436Z,39.33
2019-03-13T10:57:09.661Z,39.45
2019-03-13T10:58:25.399Z,39.55
2019-03-13T10:59:35.605Z,39.68
2019-03-13T11:00:45.841Z,39.73
2019-03-13T11:01:55.927Z,39.82
2019-03-13T11:03:17.537Z,39.94
2019-03-13T11:04:27.021Z,39.99
2019-03-13T11:05:36.950Z,40.12
2019-03-13T11:06:58.501Z,40.21
2019-03-13T11:08:13.874Z,40.27
2019-03-13T11:09:26.466Z,40.22
2019-03-13T11:10:38.783Z,40.25
2019-03-13T11:11:58.589Z,40.26
2019-03-13T11:13:08.293Z,40.34
2019-03-13T11:14:21.096Z,40.41
2019-03-13T11:15:42.973Z,40.61
2019-03-13T11:16:58.802Z,40.70
2019-03-13T11:18:08.425Z,40.83
2019-03-13T11:19:27.544Z,40.88
2019-03-13T11:20:51.561Z,41.12
2019-03-13T11:22:16.647Z,41.26
2019-03-13T11:23:26.277Z,41.33
2019-03-13T11:24:48.211Z,41.59
2019-03-13T11:26:19.903Z,41.53
2019-03-13T11:27:45.388Z,41.92
2019-03-13T11:29:05.902Z,42.13
2019-03-13T11:30:33.959Z,42.29
2019-03-13T11:31:59.886Z,42.41
2019-03-13T11:33:12.427Z,42.57
2019-03-13T11:34:21.909Z,42.84
2019-03-13T11:35:31.446Z,43.09
2019-03-13T11:36:57.977Z,43.21
2019-03-13T11:38:10.906Z,43.34
2019-03-13T11:39:28.132Z,43.57
2019-03-13T11:40:54.434Z,43.78
2019-03-13T11:42:19.127Z,43.83
2019-03-13T11:43:46.858Z,44.02
2019-03-13T11:44:59.393Z,44.09
2019-03-13T11:46:09.609Z,44.29
2019-03-13T11:47:21.986Z,44.42
2019-03-13T11:48:29.799Z,44.57
2019-03-13T11:49:51.668Z,44.67
2019-03-13T11:51:17.775Z,44.65
2019-03-13T11:52:31.867Z,44.61
2019-03-13T11:53:41.345Z,44.76
2019-03-13T11:54:49.337Z,44.70
2019-03-13T11:56:15.261Z,44.72
2019-03-13T11:57:41.364Z,44.78
2019-03-13T11:58:59.995Z,44.75
2019-03-13T12:00:17.140Z,44.85
2019-03-13T12:01:46.109Z,44.82
2019-03-13T12:03:05.433Z,44.94
2019-03-13T12:04:15.044Z,44.86
2019-03-13T12:05:27.619Z,44.84
2019-03-13T12:06:37.248Z,44.68
2019-03-13T12:07:49.734Z,44.77
2019-03-13T12:09:10.765Z,44.83
2019-03-13T12:10:27.091Z,44.82
2019-03-13T12:11:52.624Z,44.79
2019-03-13T12:13:15.736Z,44.81
2019-03-13T12:14:34.438Z,44.86
2019-03-13T12:15:53.292Z,44.78
2019-03-13T12:17:05.844Z,44.63
2019-03-13T12:18:27.682Z,44.71
2019-03-13T12:19:37.230Z,44.74
2019-03-13T12:21:00.421Z,44.80
2019-03-13T12:22:11.135Z,44.81
2019-03-13T12:23:20.830Z,44.75
2019-03-13T12:24:30.446Z,44.64
2019-03-13T12:25:40.617Z,44.71
2019-03-13T12:26:59.765Z,44.76
2019-03-13T12:28:27.475Z,44.84
2019-03-13T12:29:46.019Z,44.83
2019-03-13T12:30:55.778Z,45.00
2019-03-13T12:32:21.938Z,44.84
2019-03-13T12:33:35.274Z,44.82
2019-03-13T12:34:43.871Z,44.97
2019-03-13T12:36:09.888Z,45.08
2019-03-13T12:37:19.732Z,45.19
2019-03-13T12:38:27.626Z,45.07
2019-03-13T12:39:37.221Z,44.94
2019-03-13T12:40:44.854Z,44.83
2019-03-13T12:41:52.595Z,44.85
2019-03-13T12:43:02.110Z,44.89
2019-03-13T12:44:11.610Z,44.98
2019-03-13T12:45:21.153Z,44.73
2019-03-13T12:46:30.763Z,44.96
2019-03-13T12:47:39.164Z,44.92
2019-03-13T12:49:03.651Z,44.93
2019-03-13T12:50:17.678Z,44.94
2019-03-13T12:51:43.372Z,45.07
2019-03-13T12:52:56.741Z,44.96
2019-03-13T12:54:16.767Z,44.88
2019-03-13T12:55:27.469Z,44.84
2019-03-13T12:56:35.257Z,44.80
2019-03-13T12:57:45.167Z,44.80
2019-03-13T12:59:02.221Z,44.88
2019-03-13T13:00:18.371Z,45.02
2019-03-13T13:01:27.979Z,44.95
2019-03-13T13:02:41.734Z,44.92
2019-03-13T13:04:08.153Z,44.70
2019-03-13T13:05:15.915Z,44.70
2019-03-13T13:06:41.764Z,44.64
2019-03-13T13:07:52.000Z,44.63
2019-03-13T13:09:16.661Z,44.43
2019-03-13T13:10:42.750Z,44.44
2019-03-13T13:12:05.660Z,44.39
2019-03-13T13:13:21.818Z,44.42
2019-03-13T13:14:34.258Z,44.67
2019-03-13T13:15:46.549Z,44.54
2019-03-13T13:17:01.997Z,44.37
2019-03-13T13:18:14.368Z,44.28
2019-03-13T13:19:22.395Z,44.03
2019-03-13T13:20:30.527Z,44.24
2019-03-13T13:21:38.697Z,43.99
2019-03-13T13:22:46.579Z,43.51
2019-03-13T13:23:54.654Z,43.55
2019-03-13T13:25:02.651Z,43.59
2019-03-13T13:26:10.750Z,44.21
2019-03-13T13:27:18.718Z,43.36
2019-03-13T13:28:26.892Z,43.20
2019-03-13T13:29:34.878Z,43.61
2019-03-13T13:30:43.068Z,42.45
2019-03-13T13:31:51.077Z,42.18
2019-03-13T13:32:59.343Z,41.58
2019-03-13T13:34:07.499Z,41.38
2019-03-13T13:35:15.783Z,41.90
2019-03-13T13:36:26.836Z,41.54
2019-03-13T13:37:34.291Z,41.04
2019-03-13T13:38:42.615Z,41.63
2019-03-13T13:39:50.730Z,41.16
2019-03-13T13:40:59.016Z,41.05
2019-03-13T13:42:08.439Z,40.26
2019-03-13T13:43:16.520Z,39.98
2019-03-13T13:44:25.248Z,40.07
2019-03-13T13:45:37.843Z,40.20
2019-03-13T13:46:45.836Z,40.21
2019-03-13T13:47:54.045Z,39.84
2019-03-13T13:49:02.301Z,39.78
2019-03-13T13:50:11.057Z,39.89
2019-03-13T13:51:19.359Z,39.63
2019-03-13T13:52:27.751Z,39.86
2019-03-13T13:53:36.271Z,39.63
2019-03-13T13:54:44.379Z,39.63
2019-03-13T13:55:52.477Z,39.61
2019-03-13T13:57:00.779Z,39.14
2019-03-13T13:58:09.102Z,39.20
2019-03-13T13:59:17.392Z,39.08
2019-03-13T14:00:26.203Z,39.42
2019-03-13T14:01:34.379Z,39.34
2019-03-13T14:02:42.338Z,39.35
2019-03-13T14:03:50.324Z,39.74
2019-03-13T14:04:59.408Z,39.34
2019-03-13T14:06:08.223Z,39.38
2019-03-13T14:07:16.309Z,39.38
2019-03-13T14:08:24.643Z,39.22
2019-03-13T14:09:32.611Z,39.26
2019-03-13T14:10:40.908Z,39.06
2019-03-13T14:11:49.178Z,39.53
2019-03-13T14:12:57.702Z,39.40
2019-03-13T14:14:06.021Z,39.62
2019-03-13T14:15:16.088Z,39.03
2019-03-13T14:16:24.247Z,38.60
2019-03-13T14:17:32.201Z,38.70
2019-03-13T14:18:40.270Z,38.82
2019-03-13T14:19:48.299Z,39.06
2019-03-13T14:20:56.402Z,39.12
2019-03-13T14:22:04.850Z,39.54
2019-03-13T14:23:13.148Z,39.43
2019-03-13T14:24:21.344Z,39.05
2019-03-13T14:25:29.833Z,38.20
2019-03-13T14:26:38.247Z,37.94
2019-03-13T14:27:46.245Z,37.80
2019-03-13T14:28:54.095Z,37.99
2019-03-13T14:30:02.054Z,37.87
2019-03-13T14:31:10.570Z,37.72
2019-03-13T14:32:18.983Z,37.85
2019-03-13T14:33:27.158Z,37.69
2019-03-13T14:34:35.587Z,37.66
2019-03-13T14:35:46.206Z,37.74
2019-03-13T14:36:54.028Z,37.88
2019-03-13T14:38:02.845Z,38.23
2019-03-13T14:39:10.940Z,38.47
2019-03-13T14:40:21.209Z,38.60
2019-03-13T14:41:30.071Z,38.53
2019-03-13T14:42:38.101Z,38.70
2019-03-13T14:43:46.459Z,38.76
2019-03-13T14:44:54.653Z,39.02
2019-03-13T14:46:03.718Z,39.27
2019-03-13T14:47:12.799Z,39.37
2019-03-13T14:48:21.407Z,39.61
2019-03-13T14:49:30.584Z,39.61
2019-03-13T14:50:39.300Z,39.78
2019-03-13T14:51:47.744Z,39.90
2019-03-13T14:52:57.777Z,39.88
2019-03-13T14:54:08.246Z,39.73
2019-03-13T14:55:19.161Z,39.80
2019-03-13T14:56:27.144Z,39.94
2019-03-13T14:57:35.281Z,39.94
2019-03-13T14:58:43.589Z,39.72
2019-03-13T14:59:51.585Z,39.59
2019-03-13T15:00:59.832Z,39.70
2019-03-13T15:02:08.127Z,39.89
2019-03-13T15:03:16.127Z,39.92
2019-03-13T15:04:24.423Z,39.63
2019-03-13T15:05:32.814Z,39.66
2019-03-13T15:06:41.138Z,39.66
2019-03-13T15:07:49.381Z,39.81
2019-03-13T15:08:57.322Z,39.49
2019-03-13T15:10:10.065Z,39.66
2019-03-13T15:11:18.128Z,39.76
2019-03-13T15:12:26.187Z,39.99
2019-03-13T15:13:36.132Z,39.97
2019-03-13T15:14:44.114Z,39.97
2019-03-13T15:15:52.336Z,40.02
2019-03-13T15:17:00.808Z,40.06
2019-03-13T15:18:09.063Z,40.07
2019-03-13T15:19:17.163Z,40.19
2019-03-13T15:20:30.379Z,40.08
2019-03-13T15:21:38.777Z,40.27
2019-03-13T15:22:47.151Z,40.14